sensor_id;sensor_type;location;lat;lon;timestamp;pressure;altitude;pressure_sealevel;temperature;humidity
46836;BME280;32573;51.290;6.926;2023-01-23T00:01:49;101919.31;;;2.54;100.00
46836;BME280;32573;51.290;6.926;2023-01-23T00:04:18;101916.75;;;2.54;100.00
46836;BME280;32573;51.290;6.926;2023-01-23T00:06:46;101921.00;;;2.53;100.00
46836;BME280;32573;51.290;6.926;2023-01-23T00:09:16;101925.53;;;2.56;100.00
46836;BME280;32573;51.290;6.926;2023-01-23T00:11:46;101920.22;;;2.54;100.00
46836;BME280;32573;51.290;6.926;2023-01-23T00:14:15;101921.16;;;2.55;100.00
46836;BME280;32573;51.290;6.926;2023-01-23T00:16:44;101923.75;;;2.55;100.00
46836;BME280;32573;51.290;6.926;2023-01-23T00:19:14;101924.66;;;2.55;100.00
46836;BME280;32573;51.290;6.926;2023-01-23T00:21:43;101922.16;;;2.57;100.00
46836;BME280;32573;51.290;6.926;2023-01-23T00:24:11;101927.34;;;2.57;100.00
46836;BME280;32573;51.290;6.926;2023-01-23T00:26:40;101929.94;;;2.57;100.00
46836;BME280;32573;51.290;6.926;2023-01-23T00:29:09;101934.34;;;2.58;100.00
46836;BME280;32573;51.290;6.926;2023-01-23T00:31:38;101923.22;;;2.59;100.00
46836;BME280;32573;51.290;6.926;2023-01-23T00:34:11;101920.63;;;2.59;100.00
46836;BME280;32573;51.290;6.926;2023-01-23T00:36:41;101931.88;;;2.59;100.00
46836;BME280;32573;51.290;6.926;2023-01-23T00:39:15;101919.75;;;2.58;100.00
46836;BME280;32573;51.290;6.926;2023-01-23T00:41:43;101925.06;;;2.60;100.00
46836;BME280;32573;51.290;6.926;2023-01-23T00:44:13;101929.44;;;2.61;100.00
46836;BME280;32573;51.290;6.926;2023-01-23T00:46:42;101923.38;;;2.61;100.00
46836;BME280;32573;51.290;6.926;2023-01-23T00:49:11;101920.78;;;2.61;100.00
46836;BME280;32573;51.290;6.926;2023-01-23T00:51:39;101924.28;;;2.61;100.00
46836;BME280;32573;51.290;6.926;2023-01-23T00:54:08;101919.09;;;2.61;100.00
46836;BME280;32573;51.290;6.926;2023-01-23T00:56:36;101928.69;;;2.62;100.00
46836;BME280;32573;51.290;6.926;2023-01-23T00:59:05;101930.50;;;2.63;100.00
46836;BME280;32573;51.290;6.926;2023-01-23T01:01:35;101926.09;;;2.62;100.00
46836;BME280;32573;51.290;6.926;2023-01-23T01:04:03;101926.09;;;2.62;100.00
46836;BME280;32573;51.290;6.926;2023-01-23T01:06:32;101937.47;;;2.64;100.00
46836;BME280;32573;51.290;6.926;2023-01-23T01:09:00;101941.63;;;2.62;100.00
46836;BME280;32573;51.290;6.926;2023-01-23T01:11:29;101936.44;;;2.62;100.00
46836;BME280;32573;51.290;6.926;2023-01-23T01:13:58;101939.94;;;2.63;100.00
46836;BME280;32573;51.290;6.926;2023-01-23T01:16:29;101941.63;;;2.62;100.00
46836;BME280;32573;51.290;6.926;2023-01-23T01:18:59;101941.72;;;2.64;100.00
46836;BME280;32573;51.290;6.926;2023-01-23T01:21:27;101934.88;;;2.64;100.00
46836;BME280;32573;51.290;6.926;2023-01-23T01:23:56;101939.13;;;2.64;100.00
46836;BME280;32573;51.290;6.926;2023-01-23T01:26:26;101937.47;;;2.64;100.00
46836;BME280;32573;51.290;6.926;2023-01-23T01:28:55;101932.28;;;2.64;100.00
46836;BME280;32573;51.290;6.926;2023-01-23T01:31:23;101924.53;;;2.64;100.00
46836;BME280;32573;51.290;6.926;2023-01-23T01:33:54;101933.97;;;2.64;100.00
46836;BME280;32573;51.290;6.926;2023-01-23T01:36:23;101940.81;;;2.63;100.00
46836;BME280;32573;51.290;6.926;2023-01-23T01:38:53;101944.31;;;2.64;100.00
46836;BME280;32573;51.290;6.926;2023-01-23T01:41:24;101951.00;;;2.62;100.00
46836;BME280;32573;51.290;6.926;2023-01-23T01:43:52;101952.84;;;2.63;100.00
46836;BME280;32573;51.290;6.926;2023-01-23T01:46:25;101950.13;;;2.61;100.00
46836;BME280;32573;51.290;6.926;2023-01-23T01:49:01;101957.13;;;2.62;100.00
46836;BME280;32573;51.290;6.926;2023-01-23T01:51:37;101954.53;;;2.62;100.00
46836;BME280;32573;51.290;6.926;2023-01-23T01:54:14;101958.78;;;2.62;100.00
46836;BME280;32573;51.290;6.926;2023-01-23T01:56:48;101965.63;;;2.61;100.00
46836;BME280;32573;51.290;6.926;2023-01-23T01:59:19;101977.78;;;2.62;100.00
46836;BME280;32573;51.290;6.926;2023-01-23T02:01:51;101970.03;;;2.62;100.00
46836;BME280;32573;51.290;6.926;2023-01-23T02:04:21;101972.63;;;2.62;100.00
46836;BME280;32573;51.290;6.926;2023-01-23T02:06:51;101965.63;;;2.61;100.00
46836;BME280;32573;51.290;6.926;2023-01-23T02:09:24;101966.53;;;2.62;100.00
46836;BME280;32573;51.290;6.926;2023-01-23T02:11:53;101977.78;;;2.62;100.00
46836;BME280;32573;51.290;6.926;2023-01-23T02:14:21;101972.63;;;2.62;100.00
46836;BME280;32573;51.290;6.926;2023-01-23T02:16:52;101975.97;;;2.61;100.00
46836;BME280;32573;51.290;6.926;2023-01-23T02:19:36;101977.78;;;2.62;100.00
46836;BME280;32573;51.290;6.926;2023-01-23T02:22:17;101969.25;;;2.63;100.00
46836;BME280;32573;51.290;6.926;2023-01-23T02:24:53;101967.47;;;2.62;100.00
46836;BME280;32573;51.290;6.926;2023-01-23T02:27:25;101977.78;;;2.62;100.00
46836;BME280;32573;51.290;6.926;2023-01-23T02:29:53;101977.78;;;2.62;100.00
46836;BME280;32573;51.290;6.926;2023-01-23T02:32:25;101975.22;;;2.62;100.00
46836;BME280;32573;51.290;6.926;2023-01-23T02:34:57;101971.69;;;2.62;100.00
46836;BME280;32573;51.290;6.926;2023-01-23T02:37:31;101963.81;;;2.60;100.00
46836;BME280;32573;51.290;6.926;2023-01-23T02:40:01;101968.84;;;2.58;100.00
46836;BME280;32573;51.290;6.926;2023-01-23T02:42:34;101962.78;;;2.58;100.00
46836;BME280;32573;51.290;6.926;2023-01-23T02:45:07;101957.47;;;2.56;100.00
46836;BME280;32573;51.290;6.926;2023-01-23T02:47:35;101951.38;;;2.56;100.00
46836;BME280;32573;51.290;6.926;2023-01-23T02:50:04;101947.91;;;2.55;100.00
46836;BME280;32573;51.290;6.926;2023-01-23T02:52:33;101940.16;;;2.55;100.00
46836;BME280;32573;51.290;6.926;2023-01-23T02:55:04;101940.00;;;2.54;100.00
46836;BME280;32573;51.290;6.926;2023-01-23T02:57:34;101935.63;;;2.53;100.00
46836;BME280;32573;51.290;6.926;2023-01-23T03:00:03;101926.81;;;2.51;100.00
46836;BME280;32573;51.290;6.926;2023-01-23T03:02:43;101928.34;;;2.49;100.00
46836;BME280;32573;51.290;6.926;2023-01-23T03:05:12;101937.63;;;2.47;100.00
46836;BME280;32573;51.290;6.926;2023-01-23T03:07:41;101928.09;;;2.46;100.00
46836;BME280;32573;51.290;6.926;2023-01-23T03:10:11;101935.84;;;2.46;100.00
46836;BME280;32573;51.290;6.926;2023-01-23T03:12:44;101941.78;;;2.45;100.00
46836;BME280;32573;51.290;6.926;2023-01-23T03:15:14;101939.97;;;2.44;100.00
46836;BME280;32573;51.290;6.926;2023-01-23T03:17:42;101946.66;;;2.42;100.00
46836;BME280;32573;51.290;6.926;2023-01-23T03:20:12;101950.94;;;2.41;100.00
46836;BME280;32573;51.290;6.926;2023-01-23T03:22:41;101949.13;;;2.40;100.00
46836;BME280;32573;51.290;6.926;2023-01-23T03:25:10;101961.91;;;2.38;100.00
46836;BME280;32573;51.290;6.926;2023-01-23T03:27:39;101960.09;;;2.37;100.00
46836;BME280;32573;51.290;6.926;2023-01-23T03:30:11;101970.44;;;2.37;100.00
46836;BME280;32573;51.290;6.926;2023-01-23T03:32:40;101963.44;;;2.36;100.00
46836;BME280;32573;51.290;6.926;2023-01-23T03:35:09;101966.91;;;2.37;100.00
46836;BME280;32573;51.290;6.926;2023-01-23T03:37:40;101975.59;;;2.37;100.00
46836;BME280;32573;51.290;6.926;2023-01-23T03:40:14;101975.59;;;2.37;100.00
46836;BME280;32573;51.290;6.926;2023-01-23T03:43:00;101980.75;;;2.37;100.00
46836;BME280;32573;51.290;6.926;2023-01-23T03:45:31;101974.81;;;2.38;100.00
46836;BME280;32573;51.290;6.926;2023-01-23T03:48:00;101981.66;;;2.38;100.00
46836;BME280;32573;51.290;6.926;2023-01-23T03:50:29;101979.97;;;2.38;100.00
46836;BME280;32573;51.290;6.926;2023-01-23T03:52:58;101993.03;;;2.40;100.00
46836;BME280;32573;51.290;6.926;2023-01-23T03:55:26;101991.38;;;2.41;100.00
46836;BME280;32573;51.290;6.926;2023-01-23T03:57:55;101986.19;;;2.41;100.00
46836;BME280;32573;51.290;6.926;2023-01-23T04:00:27;101991.38;;;2.41;100.00
46836;BME280;32573;51.290;6.926;2023-01-23T04:03:01;101988.00;;;2.42;100.00
46836;BME280;32573;51.290;6.926;2023-01-23T04:05:30;101993.16;;;2.42;100.00
46836;BME280;32573;51.290;6.926;2023-01-23T04:08:01;101988.00;;;2.42;100.00
46836;BME280;32573;51.290;6.926;2023-01-23T04:10:30;101984.66;;;2.43;100.00
46836;BME280;32573;51.290;6.926;2023-01-23T04:13:03;101988.00;;;2.42;100.00
46836;BME280;32573;51.290;6.926;2023-01-23T04:15:32;101987.09;;;2.41;100.00
46836;BME280;32573;51.290;6.926;2023-01-23T04:18:08;101974.31;;;2.43;100.00
46836;BME280;32573;51.290;6.926;2023-01-23T04:20:37;101977.66;;;2.42;100.00
46836;BME280;32573;51.290;6.926;2023-01-23T04:23:06;101983.75;;;2.42;100.00
46836;BME280;32573;51.290;6.926;2023-01-23T04:25:35;101976.00;;;2.42;100.00
46836;BME280;32573;51.290;6.926;2023-01-23T04:28:11;101978.59;;;2.42;100.00
46836;BME280;32573;51.290;6.926;2023-01-23T04:30:40;101982.84;;;2.42;100.00
46836;BME280;32573;51.290;6.926;2023-01-23T04:33:21;101980.25;;;2.42;100.00
46836;BME280;32573;51.290;6.926;2023-01-23T04:35:52;101988.00;;;2.42;100.00
46836;BME280;32573;51.290;6.926;2023-01-23T04:38:22;101980.25;;;2.42;100.00
46836;BME280;32573;51.290;6.926;2023-01-23T04:40:51;101970.84;;;2.42;100.00
46836;BME280;32573;51.290;6.926;2023-01-23T04:43:20;101967.31;;;2.42;100.00
46836;BME280;32573;51.290;6.926;2023-01-23T04:45:51;101977.66;;;2.42;100.00
46836;BME280;32573;51.290;6.926;2023-01-23T04:48:51;101975.06;;;2.42;100.00
46836;BME280;32573;51.290;6.926;2023-01-23T04:51:22;101968.13;;;2.41;100.00
46836;BME280;32573;51.290;6.926;2023-01-23T04:53:50;101960.34;;;2.41;100.00
46836;BME280;32573;51.290;6.926;2023-01-23T04:56:19;101979.19;;;2.40;100.00
46836;BME280;32573;51.290;6.926;2023-01-23T04:58:47;101961.91;;;2.38;100.00
46836;BME280;32573;51.290;6.926;2023-01-23T05:01:18;101961.91;;;2.38;100.00
46836;BME280;32573;51.290;6.926;2023-01-23T05:03:52;101964.47;;;2.38;100.00
46836;BME280;32573;51.290;6.926;2023-01-23T05:06:21;101964.47;;;2.38;100.00
46836;BME280;32573;51.290;6.926;2023-01-23T05:08:53;101961.91;;;2.38;100.00
46836;BME280;32573;51.290;6.926;2023-01-23T05:11:29;101965.25;;;2.37;100.00
46836;BME280;32573;51.290;6.926;2023-01-23T05:13:58;101973.75;;;2.36;100.00
46836;BME280;32573;51.290;6.926;2023-01-23T05:16:29;101983.34;;;2.37;100.00
46836;BME280;32573;51.290;6.926;2023-01-23T05:19:31;101980.75;;;2.37;100.00
46836;BME280;32573;51.290;6.926;2023-01-23T05:22:02;101973.75;;;2.36;100.00
46836;BME280;32573;51.290;6.926;2023-01-23T05:24:30;101983.19;;;2.36;100.00
46836;BME280;32573;51.290;6.926;2023-01-23T05:26:58;101982.28;;;2.35;100.00
46836;BME280;32573;51.290;6.926;2023-01-23T05:29:30;101974.41;;;2.34;100.00
46836;BME280;32573;51.290;6.926;2023-01-23T05:32:01;101983.81;;;2.33;100.00
46836;BME280;32573;51.290;6.926;2023-01-23T05:34:51;101991.72;;;2.35;100.00
46836;BME280;32573;51.290;6.926;2023-01-23T05:37:23;101997.53;;;2.32;100.00
46836;BME280;32573;51.290;6.926;2023-01-23T05:39:56;101996.47;;;2.30;100.00
46836;BME280;32573;51.290;6.926;2023-01-23T05:42:30;101995.41;;;2.28;100.00
46836;BME280;32573;51.290;6.926;2023-01-23T05:44:58;101994.25;;;2.25;100.00
46836;BME280;32573;51.290;6.926;2023-01-23T05:47:36;102002.63;;;2.22;100.00
46836;BME280;32573;51.290;6.926;2023-01-23T05:50:11;101995.34;;;2.18;100.00
46836;BME280;32573;51.290;6.926;2023-01-23T05:52:42;101997.66;;;2.15;100.00
46836;BME280;32573;51.290;6.926;2023-01-23T05:55:10;101999.94;;;2.12;100.00
46836;BME280;32573;51.290;6.926;2023-01-23T05:57:40;101998.78;;;2.08;100.00
46836;BME280;32573;51.290;6.926;2023-01-23T06:00:26;101998.34;;;2.04;100.00
46836;BME280;32573;51.290;6.926;2023-01-23T06:03:15;101998.06;;;2.01;100.00
46836;BME280;32573;51.290;6.926;2023-01-23T06:06:05;102002.03;;;1.97;100.00
46836;BME280;32573;51.290;6.926;2023-01-23T06:08:33;102000.22;;;1.96;100.00
46836;BME280;32573;51.290;6.926;2023-01-23T06:11:03;102009.38;;;1.92;100.00
46836;BME280;32573;51.290;6.926;2023-01-23T06:13:31;102005.75;;;1.90;100.00
46836;BME280;32573;51.290;6.926;2023-01-23T06:15:59;102009.84;;;1.88;100.00
46836;BME280;32573;51.290;6.926;2023-01-23T06:18:28;102009.69;;;1.87;100.00
46836;BME280;32573;51.290;6.926;2023-01-23T06:20:57;102017.31;;;1.85;100.00
46836;BME280;32573;51.290;6.926;2023-01-23T06:23:29;102020.63;;;1.84;100.00
46836;BME280;32573;51.290;6.926;2023-01-23T06:26:00;102023.09;;;1.83;100.00
46836;BME280;32573;51.290;6.926;2023-01-23T06:28:29;102026.59;;;1.83;100.00
46836;BME280;32573;51.290;6.926;2023-01-23T06:31:01;102040.38;;;1.84;100.00
46836;BME280;32573;51.290;6.926;2023-01-23T06:33:49;102044.94;;;1.86;100.00
46836;BME280;32573;51.290;6.926;2023-01-23T06:36:21;102041.59;;;1.87;100.00
46836;BME280;32573;51.290;6.926;2023-01-23T06:38:51;102034.88;;;1.89;100.00
46836;BME280;32573;51.290;6.926;2023-01-23T06:41:25;102038.41;;;1.90;100.00
46836;BME280;32573;51.290;6.926;2023-01-23T06:43:54;102040.34;;;1.92;100.00
46836;BME280;32573;51.290;6.926;2023-01-23T06:46:25;102053.53;;;1.96;100.00
46836;BME280;32573;51.290;6.926;2023-01-23T06:48:54;102061.41;;;1.97;100.00
46836;BME280;32573;51.290;6.926;2023-01-23T06:51:22;102054.88;;;2.01;100.00
46836;BME280;32573;51.290;6.926;2023-01-23T06:53:52;102065.47;;;2.04;100.00
46836;BME280;32573;51.290;6.926;2023-01-23T06:56:21;102067.31;;;2.05;100.00
46836;BME280;32573;51.290;6.926;2023-01-23T06:58:51;102076.09;;;2.07;100.00
46836;BME280;32573;51.290;6.926;2023-01-23T07:01:25;102071.06;;;2.08;100.00
46836;BME280;32573;51.290;6.926;2023-01-23T07:04:20;102072.13;;;2.10;100.00
46836;BME280;32573;51.290;6.926;2023-01-23T07:06:50;102074.84;;;2.12;100.00
46836;BME280;32573;51.290;6.926;2023-01-23T07:09:21;102087.91;;;2.13;100.00
46836;BME280;32573;51.290;6.926;2023-01-23T07:11:59;102085.47;;;2.15;100.00
46836;BME280;32573;51.290;6.926;2023-01-23T07:14:29;102088.19;;;2.16;100.00
46836;BME280;32573;51.290;6.926;2023-01-23T07:16:58;102095.94;;;2.16;100.00
46836;BME280;32573;51.290;6.926;2023-01-23T07:19:27;102092.72;;;2.19;100.00
46836;BME280;32573;51.290;6.926;2023-01-23T07:21:57;102096.38;;;2.21;100.00
46836;BME280;32573;51.290;6.926;2023-01-23T07:24:28;102105.00;;;2.22;100.00
46836;BME280;32573;51.290;6.926;2023-01-23T07:26:58;102101.81;;;2.24;100.00
46836;BME280;32573;51.290;6.926;2023-01-23T07:29:26;102105.31;;;2.25;100.00
46836;BME280;32573;51.290;6.926;2023-01-23T07:31:57;102104.53;;;2.26;100.00
46836;BME280;32573;51.290;6.926;2023-01-23T07:34:27;102102.13;;;2.27;100.00
46836;BME280;32573;51.290;6.926;2023-01-23T07:36:55;102109.09;;;2.28;100.00
46836;BME280;32573;51.290;6.926;2023-01-23T07:39:24;102105.72;;;2.29;100.00
46836;BME280;32573;51.290;6.926;2023-01-23T07:41:54;102107.56;;;2.30;100.00
46836;BME280;32573;51.290;6.926;2023-01-23T07:44:26;102106.78;;;2.31;100.00
46836;BME280;32573;51.290;6.926;2023-01-23T07:46:55;102113.78;;;2.32;100.00
46836;BME280;32573;51.290;6.926;2023-01-23T07:49:24;102120.91;;;2.35;100.00
46836;BME280;32573;51.290;6.926;2023-01-23T07:51:52;102123.59;;;2.36;100.00
46836;BME280;32573;51.290;6.926;2023-01-23T07:54:20;102124.50;;;2.37;100.00
46836;BME280;32573;51.290;6.926;2023-01-23T07:56:49;102131.63;;;2.40;100.00
46836;BME280;32573;51.290;6.926;2023-01-23T07:59:19;102133.63;;;2.42;100.00
46836;BME280;32573;51.290;6.926;2023-01-23T08:01:47;102135.44;;;2.43;100.00
46836;BME280;32573;51.290;6.926;2023-01-23T08:04:17;102132.06;;;2.44;100.00
46836;BME280;32573;51.290;6.926;2023-01-23T08:06:46;102139.97;;;2.46;100.00
46836;BME280;32573;51.290;6.926;2023-01-23T08:09:15;102138.28;;;2.46;100.00
46836;BME280;32573;51.290;6.926;2023-01-23T08:11:52;102138.44;;;2.48;100.00
46836;BME280;32573;51.290;6.926;2023-01-23T08:14:21;102132.50;;;2.49;100.00
46836;BME280;32573;51.290;6.926;2023-01-23T08:16:50;102133.56;;;2.51;100.00
46836;BME280;32573;51.290;6.926;2023-01-23T08:19:19;102128.53;;;2.52;100.00
46836;BME280;32573;51.290;6.926;2023-01-23T08:21:49;102123.47;;;2.54;100.00
46836;BME280;32573;51.290;6.926;2023-01-23T08:24:20;102122.84;;;2.56;100.00
46836;BME280;32573;51.290;6.926;2023-01-23T08:27:11;102120.44;;;2.58;100.00
46836;BME280;32573;51.290;6.926;2023-01-23T08:29:41;102124.81;;;2.59;100.00
46836;BME280;32573;51.290;6.926;2023-01-23T08:32:11;102120.69;;;2.61;100.00
46836;BME280;32573;51.290;6.926;2023-01-23T08:34:39;102122.53;;;2.62;100.00
46836;BME280;32573;51.290;6.926;2023-01-23T08:37:08;102128.72;;;2.64;100.00
46836;BME280;32573;51.290;6.926;2023-01-23T08:39:36;102129.78;;;2.66;100.00
46836;BME280;32573;51.290;6.926;2023-01-23T08:42:05;102136.78;;;2.67;100.00
46836;BME280;32573;51.290;6.926;2023-01-23T08:44:33;102134.31;;;2.69;100.00
46836;BME280;32573;51.290;6.926;2023-01-23T08:47:03;102135.22;;;2.69;100.00
46836;BME280;32573;51.290;6.926;2023-01-23T08:49:31;102144.03;;;2.71;100.00
46836;BME280;32573;51.290;6.926;2023-01-23T08:52:00;102145.09;;;2.73;100.00
46836;BME280;32573;51.290;6.926;2023-01-23T08:54:28;102143.41;;;2.74;100.00
46836;BME280;32573;51.290;6.926;2023-01-23T08:56:58;102139.91;;;2.73;100.00
46836;BME280;32573;51.290;6.926;2023-01-23T08:59:30;102139.44;;;2.77;100.00
46836;BME280;32573;51.290;6.926;2023-01-23T09:02:00;102142.03;;;2.77;100.00
46836;BME280;32573;51.290;6.926;2023-01-23T09:04:33;102152.50;;;2.79;100.00
46836;BME280;32573;51.290;6.926;2023-01-23T09:07:01;102156.13;;;2.81;100.00
46836;BME280;32573;51.290;6.926;2023-01-23T09:09:29;102151.09;;;2.83;100.00
46836;BME280;32573;51.290;6.926;2023-01-23T09:12:01;102152.00;;;2.83;100.00
46836;BME280;32573;51.290;6.926;2023-01-23T09:14:31;102152.16;;;2.85;100.00
46836;BME280;32573;51.290;6.926;2023-01-23T09:16:59;102151.38;;;2.86;100.00
46836;BME280;32573;51.290;6.926;2023-01-23T09:19:31;102155.78;;;2.87;100.00
46836;BME280;32573;51.290;6.926;2023-01-23T09:22:04;102158.50;;;2.88;100.00
46836;BME280;32573;51.290;6.926;2023-01-23T09:24:32;102163.06;;;2.91;100.00
46836;BME280;32573;51.290;6.926;2023-01-23T09:27:03;102156.19;;;2.91;100.00
46836;BME280;32573;51.290;6.926;2023-01-23T09:29:37;102160.00;;;2.95;100.00
46836;BME280;32573;51.290;6.926;2023-01-23T09:32:10;102163.59;;;2.97;100.00
46836;BME280;32573;51.290;6.926;2023-01-23T09:34:38;102163.75;;;2.98;100.00
46836;BME280;32573;51.290;6.926;2023-01-23T09:37:09;102158.84;;;3.01;100.00
46836;BME280;32573;51.290;6.926;2023-01-23T09:39:43;102159.91;;;3.03;100.00
46836;BME280;32573;51.290;6.926;2023-01-23T09:42:18;102166.28;;;3.07;100.00
46836;BME280;32573;51.290;6.926;2023-01-23T09:44:53;102175.06;;;3.09;100.00
46836;BME280;32573;51.290;6.926;2023-01-23T09:47:30;102176.09;;;3.11;100.00
46836;BME280;32573;51.290;6.926;2023-01-23T09:50:04;102165.00;;;3.12;100.00
46836;BME280;32573;51.290;6.926;2023-01-23T09:52:43;102180.78;;;3.15;100.00
46836;BME280;32573;51.290;6.926;2023-01-23T09:55:16;102174.84;;;3.16;100.00
46836;BME280;32573;51.290;6.926;2023-01-23T09:57:49;102175.09;;;3.19;100.00
46836;BME280;32573;51.290;6.926;2023-01-23T10:00:21;102173.47;;;3.20;100.00
46836;BME280;32573;51.290;6.926;2023-01-23T10:02:51;102173.56;;;3.21;100.00
46836;BME280;32573;51.290;6.926;2023-01-23T10:05:24;102172.81;;;3.22;100.00
46836;BME280;32573;51.290;6.926;2023-01-23T10:08:04;102179.81;;;3.23;100.00
46836;BME280;32573;51.290;6.926;2023-01-23T10:10:51;102170.66;;;3.27;100.00
46836;BME280;32573;51.290;6.926;2023-01-23T10:13:29;102175.31;;;3.31;100.00
46836;BME280;32573;51.290;6.926;2023-01-23T10:16:20;102185.19;;;3.35;100.00
46836;BME280;32573;51.290;6.926;2023-01-23T10:18:57;102189.44;;;3.35;100.00
46836;BME280;32573;51.290;6.926;2023-01-23T10:21:33;102185.28;;;3.37;100.00
46836;BME280;32573;51.290;6.926;2023-01-23T10:24:27;102183.75;;;3.39;100.00
46836;BME280;32573;51.290;6.926;2023-01-23T10:27:15;102188.19;;;3.40;100.00
46836;BME280;32573;51.290;6.926;2023-01-23T10:29:48;102174.47;;;3.41;100.00
46836;BME280;32573;51.290;6.926;2023-01-23T10:32:23;102174.47;;;3.41;100.00
46836;BME280;32573;51.290;6.926;2023-01-23T10:35:05;102179.00;;;3.43;100.00
46836;BME280;32573;51.290;6.926;2023-01-23T10:37:43;102183.28;;;3.43;100.00
46836;BME280;32573;51.290;6.926;2023-01-23T10:40:16;102176.56;;;3.45;100.00
46836;BME280;32573;51.290;6.926;2023-01-23T10:43:11;102188.72;;;3.46;100.00
46836;BME280;32573;51.290;6.926;2023-01-23T10:45:41;102191.44;;;3.48;100.00
46836;BME280;32573;51.290;6.926;2023-01-23T10:48:38;102187.97;;;3.47;100.00
46836;BME280;32573;51.290;6.926;2023-01-23T10:51:42;102177.72;;;3.49;100.00
46836;BME280;32573;51.290;6.926;2023-01-23T10:54:15;102175.28;;;3.50;100.00
46836;BME280;32573;51.290;6.926;2023-01-23T10:57:00;102178.94;;;3.52;100.00
46836;BME280;32573;51.290;6.926;2023-01-23T10:59:32;102180.72;;;3.53;100.00
46836;BME280;32573;51.290;6.926;2023-01-23T11:02:16;102182.53;;;3.54;100.00
46836;BME280;32573;51.290;6.926;2023-01-23T11:04:46;102181.00;;;3.56;100.00
46836;BME280;32573;51.290;6.926;2023-01-23T11:07:19;102181.25;;;3.59;100.00
46836;BME280;32573;51.290;6.926;2023-01-23T11:09:52;102172.75;;;3.60;100.00
46836;BME280;32573;51.290;6.926;2023-01-23T11:12:23;102168.47;;;3.61;100.00
46836;BME280;32573;51.290;6.926;2023-01-23T11:15:12;102173.00;;;3.63;100.00
46836;BME280;32573;51.290;6.926;2023-01-23T11:17:44;102164.34;;;3.63;100.00
46836;BME280;32573;51.290;6.926;2023-01-23T11:20:23;102159.31;;;3.64;100.00
46836;BME280;32573;51.290;6.926;2023-01-23T11:23:13;102166.28;;;3.65;100.00
46836;BME280;32573;51.290;6.926;2023-01-23T11:25:44;102162.91;;;3.66;100.00
46836;BME280;32573;51.290;6.926;2023-01-23T11:28:21;102159.69;;;3.69;100.00
46836;BME280;32573;51.290;6.926;2023-01-23T11:30:57;102159.81;;;3.71;100.00
46836;BME280;32573;51.290;6.926;2023-01-23T11:33:45;102160.09;;;3.74;100.00
46836;BME280;32573;51.290;6.926;2023-01-23T11:36:37;102155.06;;;3.75;100.00
46836;BME280;32573;51.290;6.926;2023-01-23T11:39:14;102151.56;;;3.75;100.00
46836;BME280;32573;51.290;6.926;2023-01-23T11:41:46;102148.19;;;3.76;100.00
46836;BME280;32573;51.290;6.926;2023-01-23T11:44:18;102140.56;;;3.77;100.00
46836;BME280;32573;51.290;6.926;2023-01-23T11:47:09;102148.44;;;3.79;100.00
46836;BME280;32573;51.290;6.926;2023-01-23T11:49:53;102140.81;;;3.80;100.00
46836;BME280;32573;51.290;6.926;2023-01-23T11:52:31;102156.47;;;3.82;100.00
46836;BME280;32573;51.290;6.926;2023-01-23T11:55:23;102152.22;;;3.82;100.00
46836;BME280;32573;51.290;6.926;2023-01-23T11:58:08;102153.28;;;3.84;100.00
46836;BME280;32573;51.290;6.926;2023-01-23T12:00:44;102148.09;;;3.84;100.00
46836;BME280;32573;51.290;6.926;2023-01-23T12:03:35;102142.28;;;3.87;100.00
46836;BME280;32573;51.290;6.926;2023-01-23T12:09:17;102153.16;;;3.93;100.00
46836;BME280;32573;51.290;6.926;2023-01-23T12:11:56;102148.88;;;3.94;100.00
46836;BME280;32573;51.290;6.926;2023-01-23T12:14:37;102156.00;;;3.96;100.00
46836;BME280;32573;51.290;6.926;2023-01-23T12:17:20;102158.84;;;3.99;100.00
46836;BME280;32573;51.290;6.926;2023-01-23T12:20:02;102149.28;;;3.98;100.00
46836;BME280;32573;51.290;6.926;2023-01-23T12:22:44;102153.66;;;3.99;100.00
46836;BME280;32573;51.290;6.926;2023-01-23T12:25:21;102149.44;;;4.00;100.00
46836;BME280;32573;51.290;6.926;2023-01-23T12:27:58;102148.50;;;3.99;100.00
46836;BME280;32573;51.290;6.926;2023-01-23T12:30:54;102148.63;;;4.01;100.00
46836;BME280;32573;51.290;6.926;2023-01-23T12:33:49;102143.59;;;4.02;100.00
46836;BME280;32573;51.290;6.926;2023-01-23T12:36:30;102142.81;;;4.03;100.00
46836;BME280;32573;51.290;6.926;2023-01-23T12:39:20;102143.84;;;4.05;100.00
46836;BME280;32573;51.290;6.926;2023-01-23T12:42:00;102144.09;;;4.08;100.00
46836;BME280;32573;51.290;6.926;2023-01-23T12:44:34;102153.84;;;4.11;100.00
46836;BME280;32573;51.290;6.926;2023-01-23T12:47:05;102141.78;;;4.11;100.00
46836;BME280;32573;51.290;6.926;2023-01-23T12:49:40;102146.47;;;4.16;100.00
46836;BME280;32573;51.290;6.926;2023-01-23T12:52:13;102146.72;;;4.19;100.00
46836;BME280;32573;51.290;6.926;2023-01-23T12:54:47;102153.19;;;4.24;100.00
46836;BME280;32573;51.290;6.926;2023-01-23T12:57:19;102153.47;;;4.27;100.00
46836;BME280;32573;51.290;6.926;2023-01-23T13:00:31;102153.84;;;4.31;100.00
46836;BME280;32573;51.290;6.926;2023-01-23T13:03:16;102145.44;;;4.34;100.00
46836;BME280;32573;51.290;6.926;2023-01-23T13:05:59;102143.13;;;4.37;100.00
46836;BME280;32573;51.290;6.926;2023-01-23T13:08:33;102153.75;;;4.40;100.00
46836;BME280;32573;51.290;6.926;2023-01-23T13:11:28;102155.53;;;4.41;100.00
46836;BME280;32573;51.290;6.926;2023-01-23T13:14:21;102148.81;;;4.43;100.00
46836;BME280;32573;51.290;6.926;2023-01-23T13:16:57;102152.44;;;4.45;100.00
46836;BME280;32573;51.290;6.926;2023-01-23T13:19:40;102153.34;;;4.46;100.00
46836;BME280;32573;51.290;6.926;2023-01-23T13:22:31;102148.94;;;4.45;100.00
46836;BME280;32573;51.290;6.926;2023-01-23T13:25:01;102156.72;;;4.45;100.00
46836;BME280;32573;51.290;6.926;2023-01-23T13:27:41;102154.00;;;4.43;100.00